sensor_id;sensor_type;location;lat;lon;timestamp;temperature;humidity
2855;DHT22;1435;49.472;10.940;2023-11-21T00:02:07;10.00;99.90
2855;DHT22;1435;49.472;10.940;2023-11-21T00:07:08;10.10;99.90
2855;DHT22;1435;49.472;10.940;2023-11-21T00:12:10;10.10;99.90
2855;DHT22;1435;49.472;10.940;2023-11-21T00:17:13;10.10;99.90
2855;DHT22;1435;49.472;10.940;2023-11-21T00:22:15;10.00;99.90
2855;DHT22;1435;49.472;10.940;2023-11-21T00:27:17;10.00;99.90
2855;DHT22;1435;49.472;10.940;2023-11-21T00:32:20;10.00;99.90
2855;DHT22;1435;49.472;10.940;2023-11-21T00:37:22;9.90;99.90
2855;DHT22;1435;49.472;10.940;2023-11-21T00:42:24;9.90;99.90
2855;DHT22;1435;49.472;10.940;2023-11-21T00:47:27;9.90;99.90
2855;DHT22;1435;49.472;10.940;2023-11-21T00:52:29;9.80;99.90
2855;DHT22;1435;49.472;10.940;2023-11-21T00:57:30;9.90;99.90
2855;DHT22;1435;49.472;10.940;2023-11-21T01:02:33;9.80;99.90
2855;DHT22;1435;49.472;10.940;2023-11-21T01:07:36;9.80;99.90
2855;DHT22;1435;49.472;10.940;2023-11-21T01:12:38;9.90;99.90
2855;DHT22;1435;49.472;10.940;2023-11-21T01:17:41;9.90;99.90
2855;DHT22;1435;49.472;10.940;2023-11-21T01:22:43;9.80;99.90
2855;DHT22;1435;49.472;10.940;2023-11-21T01:27:45;9.80;99.90
2855;DHT22;1435;49.472;10.940;2023-11-21T01:32:48;9.90;99.90
2855;DHT22;1435;49.472;10.940;2023-11-21T01:37:50;9.90;99.90
2855;DHT22;1435;49.472;10.940;2023-11-21T01:42:53;9.90;99.90
2855;DHT22;1435;49.472;10.940;2023-11-21T01:47:56;9.90;99.90
2855;DHT22;1435;49.472;10.940;2023-11-21T01:52:59;9.90;99.90
2855;DHT22;1435;49.472;10.940;2023-11-21T01:58:01;9.90;99.90
2855;DHT22;1435;49.472;10.940;2023-11-21T02:03:05;9.90;99.90
2855;DHT22;1435;49.472;10.940;2023-11-21T02:08:07;9.90;99.90
2855;DHT22;1435;49.472;10.940;2023-11-21T02:13:10;9.90;99.90
2855;DHT22;1435;49.472;10.940;2023-11-21T02:18:13;9.90;99.90
2855;DHT22;1435;49.472;10.940;2023-11-21T02:23:17;9.90;99.90
2855;DHT22;1435;49.472;10.940;2023-11-21T02:28:18;9.80;99.90
2855;DHT22;1435;49.472;10.940;2023-11-21T02:33:26;9.80;99.90
2855;DHT22;1435;49.472;10.940;2023-11-21T02:38:29;9.80;99.90
2855;DHT22;1435;49.472;10.940;2023-11-21T02:43:30;9.80;99.90
2855;DHT22;1435;49.472;10.940;2023-11-21T02:48:32;9.80;99.90
2855;DHT22;1435;49.472;10.940;2023-11-21T02:53:35;9.80;99.90
2855;DHT22;1435;49.472;10.940;2023-11-21T02:58:41;9.70;99.90
2855;DHT22;1435;49.472;10.940;2023-11-21T03:03:43;9.70;99.90
2855;DHT22;1435;49.472;10.940;2023-11-21T03:08:47;9.70;99.90
2855;DHT22;1435;49.472;10.940;2023-11-21T03:13:49;9.70;99.90
2855;DHT22;1435;49.472;10.940;2023-11-21T03:18:50;9.70;99.90
2855;DHT22;1435;49.472;10.940;2023-11-21T03:23:54;9.70;99.90
2855;DHT22;1435;49.472;10.940;2023-11-21T03:28:55;9.80;99.90
2855;DHT22;1435;49.472;10.940;2023-11-21T03:33:58;9.80;99.90
2855;DHT22;1435;49.472;10.940;2023-11-21T03:39:01;9.70;99.90
2855;DHT22;1435;49.472;10.940;2023-11-21T03:44:03;9.70;99.90
2855;DHT22;1435;49.472;10.940;2023-11-21T03:49:04;9.70;99.90
2855;DHT22;1435;49.472;10.940;2023-11-21T03:54:08;9.70;99.90
2855;DHT22;1435;49.472;10.940;2023-11-21T03:59:10;9.60;99.90
2855;DHT22;1435;49.472;10.940;2023-11-21T04:04:12;9.60;99.90
2855;DHT22;1435;49.472;10.940;2023-11-21T04:09:15;9.70;99.90
2855;DHT22;1435;49.472;10.940;2023-11-21T04:14:17;9.60;99.90
2855;DHT22;1435;49.472;10.940;2023-11-21T04:19:18;9.60;99.90
2855;DHT22;1435;49.472;10.940;2023-11-21T04:24:21;9.60;99.90
2855;DHT22;1435;49.472;10.940;2023-11-21T04:29:23;9.50;99.90
2855;DHT22;1435;49.472;10.940;2023-11-21T04:34:25;9.60;99.90
2855;DHT22;1435;49.472;10.940;2023-11-21T04:39:28;9.60;99.90
2855;DHT22;1435;49.472;10.940;2023-11-21T04:44:30;9.60;99.90
2855;DHT22;1435;49.472;10.940;2023-11-21T04:49:31;9.60;99.90
2855;DHT22;1435;49.472;10.940;2023-11-21T04:54:35;9.60;99.90
2855;DHT22;1435;49.472;10.940;2023-11-21T04:59:36;9.60;99.90
2855;DHT22;1435;49.472;10.940;2023-11-21T05:04:38;9.60;99.90
2855;DHT22;1435;49.472;10.940;2023-11-21T05:09:42;9.50;99.90
2855;DHT22;1435;49.472;10.940;2023-11-21T05:14:46;9.60;99.90
2855;DHT22;1435;49.472;10.940;2023-11-21T05:19:49;9.50;99.90
2855;DHT22;1435;49.472;10.940;2023-11-21T05:24:52;9.50;99.90
2855;DHT22;1435;49.472;10.940;2023-11-21T05:29:53;9.50;99.90
2855;DHT22;1435;49.472;10.940;2023-11-21T05:34:55;9.40;99.90
2855;DHT22;1435;49.472;10.940;2023-11-21T05:39:58;9.40;99.90
2855;DHT22;1435;49.472;10.940;2023-11-21T05:45:05;9.40;99.90
2855;DHT22;1435;49.472;10.940;2023-11-21T05:50:11;9.50;99.90
2855;DHT22;1435;49.472;10.940;2023-11-21T05:55:16;9.50;99.90
2855;DHT22;1435;49.472;10.940;2023-11-21T06:00:18;9.50;99.90
2855;DHT22;1435;49.472;10.940;2023-11-21T06:05:21;9.50;99.90
2855;DHT22;1435;49.472;10.940;2023-11-21T06:10:26;9.50;99.90
2855;DHT22;1435;49.472;10.940;2023-11-21T06:15:28;9.60;99.90
2855;DHT22;1435;49.472;10.940;2023-11-21T06:20:30;9.50;99.90
2855;DHT22;1435;49.472;10.940;2023-11-21T06:25:33;9.50;99.90
2855;DHT22;1435;49.472;10.940;2023-11-21T06:30:36;9.40;99.90
2855;DHT22;1435;49.472;10.940;2023-11-21T06:35:38;9.40;99.90
2855;DHT22;1435;49.472;10.940;2023-11-21T06:40:41;9.50;99.90
2855;DHT22;1435;49.472;10.940;2023-11-21T06:45:43;9.50;99.90
2855;DHT22;1435;49.472;10.940;2023-11-21T06:50:45;9.50;99.90
2855;DHT22;1435;49.472;10.940;2023-11-21T06:55:48;9.50;99.90
2855;DHT22;1435;49.472;10.940;2023-11-21T07:00:50;9.50;99.90
2855;DHT22;1435;49.472;10.940;2023-11-21T07:05:52;9.50;99.90
2855;DHT22;1435;49.472;10.940;2023-11-21T07:10:55;9.50;99.90
2855;DHT22;1435;49.472;10.940;2023-11-21T07:15:57;9.50;99.90
2855;DHT22;1435;49.472;10.940;2023-11-21T07:21:00;9.50;99.90
2855;DHT22;1435;49.472;10.940;2023-11-21T07:26:04;9.60;99.90
2855;DHT22;1435;49.472;10.940;2023-11-21T07:31:09;9.60;99.90
2855;DHT22;1435;49.472;10.940;2023-11-21T07:36:11;9.60;99.90
2855;DHT22;1435;49.472;10.940;2023-11-21T07:41:14;9.60;99.90
2855;DHT22;1435;49.472;10.940;2023-11-21T07:46:16;9.60;99.90
2855;DHT22;1435;49.472;10.940;2023-11-21T07:51:18;9.60;99.90
2855;DHT22;1435;49.472;10.940;2023-11-21T07:56:21;9.70;99.90
2855;DHT22;1435;49.472;10.940;2023-11-21T08:01:23;9.70;99.90
2855;DHT22;1435;49.472;10.940;2023-11-21T08:06:25;9.60;99.90
2855;DHT22;1435;49.472;10.940;2023-11-21T08:11:28;9.60;99.90
2855;DHT22;1435;49.472;10.940;2023-11-21T08:16:32;9.60;99.90
2855;DHT22;1435;49.472;10.940;2023-11-21T08:21:33;9.70;99.90
2855;DHT22;1435;49.472;10.940;2023-11-21T08:26:39;9.70;99.90
2855;DHT22;1435;49.472;10.940;2023-11-21T08:31:41;9.80;99.90
2855;DHT22;1435;49.472;10.940;2023-11-21T08:36:42;9.80;99.90
2855;DHT22;1435;49.472;10.940;2023-11-21T08:41:46;9.70;99.90
2855;DHT22;1435;49.472;10.940;2023-11-21T08:46:48;9.70;99.90
2855;DHT22;1435;49.472;10.940;2023-11-21T08:51:50;9.80;99.90
2855;DHT22;1435;49.472;10.940;2023-11-21T08:56:54;9.90;99.90
2855;DHT22;1435;49.472;10.940;2023-11-21T09:01:56;9.90;99.90
2855;DHT22;1435;49.472;10.940;2023-11-21T09:06:57;9.90;99.90
2855;DHT22;1435;49.472;10.940;2023-11-21T09:12:02;9.90;99.90
2855;DHT22;1435;49.472;10.940;2023-11-21T09:17:03;10.00;99.90
2855;DHT22;1435;49.472;10.940;2023-11-21T09:22:11;10.10;99.90
2855;DHT22;1435;49.472;10.940;2023-11-21T09:27:14;10.10;99.90
2855;DHT22;1435;49.472;10.940;2023-11-21T09:32:15;10.10;99.90
2855;DHT22;1435;49.472;10.940;2023-11-21T09:37:19;10.20;99.90
2855;DHT22;1435;49.472;10.940;2023-11-21T09:42:25;10.20;99.90
2855;DHT22;1435;49.472;10.940;2023-11-21T09:47:27;10.20;99.90
2855;DHT22;1435;49.472;10.940;2023-11-21T09:52:30;10.30;99.90
2855;DHT22;1435;49.472;10.940;2023-11-21T09:57:34;10.30;99.90
2855;DHT22;1435;49.472;10.940;2023-11-21T10:02:36;10.40;99.90
2855;DHT22;1435;49.472;10.940;2023-11-21T10:07:39;10.40;99.90
2855;DHT22;1435;49.472;10.940;2023-11-21T10:12:43;10.40;99.90
2855;DHT22;1435;49.472;10.940;2023-11-21T10:17:50;10.40;99.90
2855;DHT22;1435;49.472;10.940;2023-11-21T10:22:53;10.50;99.90
2855;DHT22;1435;49.472;10.940;2023-11-21T10:28:02;10.50;99.90
2855;DHT22;1435;49.472;10.940;2023-11-21T10:33:06;10.60;99.90
2855;DHT22;1435;49.472;10.940;2023-11-21T10:38:08;10.60;99.90
2855;DHT22;1435;49.472;10.940;2023-11-21T10:43:12;10.60;99.90
2855;DHT22;1435;49.472;10.940;2023-11-21T10:48:15;10.60;99.90
2855;DHT22;1435;49.472;10.940;2023-11-21T10:53:17;10.70;99.90
2855;DHT22;1435;49.472;10.940;2023-11-21T10:58:20;10.70;99.90
2855;DHT22;1435;49.472;10.940;2023-11-21T11:03:22;10.80;99.90
2855;DHT22;1435;49.472;10.940;2023-11-21T11:08:25;10.80;99.90
2855;DHT22;1435;49.472;10.940;2023-11-21T11:13:29;10.90;99.90
2855;DHT22;1435;49.472;10.940;2023-11-21T11:18:32;10.90;99.90
2855;DHT22;1435;49.472;10.940;2023-11-21T11:23:46;11.00;99.90
2855;DHT22;1435;49.472;10.940;2023-11-21T11:29:00;11.00;99.90
2855;DHT22;1435;49.472;10.940;2023-11-21T11:34:16;11.00;99.90
2855;DHT22;1435;49.472;10.940;2023-11-21T11:39:30;11.00;99.90
2855;DHT22;1435;49.472;10.940;2023-11-21T11:44:50;11.00;99.90
2855;DHT22;1435;49.472;10.940;2023-11-21T11:50:05;11.00;99.90
2855;DHT22;1435;49.472;10.940;2023-11-21T11:55:13;11.10;99.90
2855;DHT22;1435;49.472;10.940;2023-11-21T12:00:17;11.00;99.90
2855;DHT22;1435;49.472;10.940;2023-11-21T12:05:22;11.10;99.90
2855;DHT22;1435;49.472;10.940;2023-11-21T12:10:29;11.10;99.90
2855;DHT22;1435;49.472;10.940;2023-11-21T12:15:32;11.10;99.90
2855;DHT22;1435;49.472;10.940;2023-11-21T12:20:34;11.10;99.90
2855;DHT22;1435;49.472;10.940;2023-11-21T12:25:39;11.10;99.90
2855;DHT22;1435;49.472;10.940;2023-11-21T12:30:43;11.20;99.90
2855;DHT22;1435;49.472;10.940;2023-11-21T12:35:45;11.20;99.90
2855;DHT22;1435;49.472;10.940;2023-11-21T12:40:47;11.20;99.90
2855;DHT22;1435;49.472;10.940;2023-11-21T12:45:50;11.20;99.90
2855;DHT22;1435;49.472;10.940;2023-11-21T12:50:53;11.20;99.90
2855;DHT22;1435;49.472;10.940;2023-11-21T12:55:56;11.20;99.90
2855;DHT22;1435;49.472;10.940;2023-11-21T13:01:00;11.30;99.90
2855;DHT22;1435;49.472;10.940;2023-11-21T13:06:04;11.30;99.90
2855;DHT22;1435;49.472;10.940;2023-11-21T13:11:08;11.30;99.90
2855;DHT22;1435;49.472;10.940;2023-11-21T13:16:11;11.30;99.90
2855;DHT22;1435;49.472;10.940;2023-11-21T13:21:13;11.40;99.90
2855;DHT22;1435;49.472;10.940;2023-11-21T13:26:16;11.30;99.90
2855;DHT22;1435;49.472;10.940;2023-11-21T13:31:19;11.40;99.90
2855;DHT22;1435;49.472;10.940;2023-11-21T13:36:27;11.40;99.90
2855;DHT22;1435;49.472;10.940;2023-11-21T13:41:33;11.40;99.90
2855;DHT22;1435;49.472;10.940;2023-11-21T13:46:36;11.50;99.90
2855;DHT22;1435;49.472;10.940;2023-11-21T13:51:38;11.60;99.90
2855;DHT22;1435;49.472;10.940;2023-11-21T13:56:46;12.10;99.90
2855;DHT22;1435;49.472;10.940;2023-11-21T14:01:51;12.90;99.90
2855;DHT22;1435;49.472;10.940;2023-11-21T14:06:56;14.00;99.90
2855;DHT22;1435;49.472;10.940;2023-11-21T14:12:01;14.80;99.90
2855;DHT22;1435;49.472;10.940;2023-11-21T14:17:08;15.70;99.90
2855;DHT22;1435;49.472;10.940;2023-11-21T14:22:11;16.10;99.90
2855;DHT22;1435;49.472;10.940;2023-11-21T14:27:13;15.80;99.90
2855;DHT22;1435;49.472;10.940;2023-11-21T14:32:16;15.50;99.90
2855;DHT22;1435;49.472;10.940;2023-11-21T14:37:18;15.00;99.90
2855;DHT22;1435;49.472;10.940;2023-11-21T14:42:20;14.60;99.90
2855;DHT22;1435;49.472;10.940;2023-11-21T14:47:27;14.30;99.90
2855;DHT22;1435;49.472;10.940;2023-11-21T14:52:28;13.90;99.90
2855;DHT22;1435;49.472;10.940;2023-11-21T14:57:34;13.70;99.90
2855;DHT22;1435;49.472;10.940;2023-11-21T15:02:37;13.50;99.90
2855;DHT22;1435;49.472;10.940;2023-11-21T15:07:50;13.30;99.90
2855;DHT22;1435;49.472;10.940;2023-11-21T15:12:56;13.10;99.90
2855;DHT22;1435;49.472;10.940;2023-11-21T15:17:59;12.90;99.90
2855;DHT22;1435;49.472;10.940;2023-11-21T15:23:01;12.70;99.90
2855;DHT22;1435;49.472;10.940;2023-11-21T15:28:04;12.50;99.90
2855;DHT22;1435;49.472;10.940;2023-11-21T15:33:07;12.30;99.90
2855;DHT22;1435;49.472;10.940;2023-11-21T15:38:09;12.20;99.90
2855;DHT22;1435;49.472;10.940;2023-11-21T15:43:11;12.00;99.90
2855;DHT22;1435;49.472;10.940;2023-11-21T15:48:14;11.80;99.90
2855;DHT22;1435;49.472;10.940;2023-11-21T15:53:16;11.60;99.90
2855;DHT22;1435;49.472;10.940;2023-11-21T15:58:18;11.50;99.90
2855;DHT22;1435;49.472;10.940;2023-11-21T16:03:21;11.30;99.90
2855;DHT22;1435;49.472;10.940;2023-11-21T16:08:23;11.20;99.90
2855;DHT22;1435;49.472;10.940;2023-11-21T16:13:26;11.10;99.90
2855;DHT22;1435;49.472;10.940;2023-11-21T16:18:29;11.00;99.90
2855;DHT22;1435;49.472;10.940;2023-11-21T16:23:31;11.00;99.90
2855;DHT22;1435;49.472;10.940;2023-11-21T16:28:33;10.90;99.90
2855;DHT22;1435;49.472;10.940;2023-11-21T16:33:36;10.90;99.90
2855;DHT22;1435;49.472;10.940;2023-11-21T16:38:37;10.80;99.90
2855;DHT22;1435;49.472;10.940;2023-11-21T16:43:40;10.70;99.90
2855;DHT22;1435;49.472;10.940;2023-11-21T16:48:43;10.80;99.90
2855;DHT22;1435;49.472;10.940;2023-11-21T16:53:45;10.70;99.90
2855;DHT22;1435;49.472;10.940;2023-11-21T16:58:46;10.70;99.90
2855;DHT22;1435;49.472;10.940;2023-11-21T17:03:50;10.70;99.90
2855;DHT22;1435;49.472;10.940;2023-11-21T17:08:52;10.70;99.90
2855;DHT22;1435;49.472;10.940;2023-11-21T17:13:53;10.60;99.90
2855;DHT22;1435;49.472;10.940;2023-11-21T17:18:56;10.60;99.90
2855;DHT22;1435;49.472;10.940;2023-11-21T17:23:58;10.60;99.90
2855;DHT22;1435;49.472;10.940;2023-11-21T17:29:01;10.60;99.90
2855;DHT22;1435;49.472;10.940;2023-11-21T17:34:04;10.60;99.90
2855;DHT22;1435;49.472;10.940;2023-11-21T17:39:06;10.60;99.90
2855;DHT22;1435;49.472;10.940;2023-11-21T17:44:10;10.60;99.90
2855;DHT22;1435;49.472;10.940;2023-11-21T17:49:14;10.50;99.90
2855;DHT22;1435;49.472;10.940;2023-11-21T17:54:16;10.50;99.90
2855;DHT22;1435;49.472;10.940;2023-11-21T17:59:18;10.50;99.90
2855;DHT22;1435;49.472;10.940;2023-11-21T18:04:22;10.50;99.90
2855;DHT22;1435;49.472;10.940;2023-11-21T18:09:25;10.50;99.90
2855;DHT22;1435;49.472;10.940;2023-11-21T18:14:26;10.50;99.90
2855;DHT22;1435;49.472;10.940;2023-11-21T18:19:29;10.50;99.90
2855;DHT22;1435;49.472;10.940;2023-11-21T18:24:31;10.50;99.90
2855;DHT22;1435;49.472;10.940;2023-11-21T18:29:33;10.50;99.90
2855;DHT22;1435;49.472;10.940;2023-11-21T18:34:36;10.50;99.90
2855;DHT22;1435;49.472;10.940;2023-11-21T18:39:38;10.50;99.90
2855;DHT22;1435;49.472;10.940;2023-11-21T18:44:41;10.50;99.90
2855;DHT22;1435;49.472;10.940;2023-11-21T18:49:44;10.40;99.90
2855;DHT22;1435;49.472;10.940;2023-11-21T18:54:46;10.50;99.90
2855;DHT22;1435;49.472;10.940;2023-11-21T18:59:48;10.50;99.90
2855;DHT22;1435;49.472;10.940;2023-11-21T19:04:52;10.50;99.90
2855;DHT22;1435;49.472;10.940;2023-11-21T19:09:53;10.50;99.90
2855;DHT22;1435;49.472;10.940;2023-11-21T19:14:55;10.50;99.90
2855;DHT22;1435;49.472;10.940;2023-11-21T19:19:58;10.50;99.90
2855;DHT22;1435;49.472;10.940;2023-11-21T19:25:00;10.40;99.90
2855;DHT22;1435;49.472;10.940;2023-11-21T19:30:03;10.40;99.90
2855;DHT22;1435;49.472;10.940;2023-11-21T19:35:07;10.40;99.90
2855;DHT22;1435;49.472;10.940;2023-11-21T19:40:10;10.30;99.90
2855;DHT22;1435;49.472;10.940;2023-11-21T19:45:12;10.30;99.90
2855;DHT22;1435;49.472;10.940;2023-11-21T19:50:16;10.30;99.90
2855;DHT22;1435;49.472;10.940;2023-11-21T19:55:17;10.30;99.90
2855;DHT22;1435;49.472;10.940;2023-11-21T20:00:19;10.20;99.90
2855;DHT22;1435;49.472;10.940;2023-11-21T20:05:22;10.30;99.90
2855;DHT22;1435;49.472;10.940;2023-11-21T20:10:24;10.10;99.90
2855;DHT22;1435;49.472;10.940;2023-11-21T20:15:25;10.10;99.90
2855;DHT22;1435;49.472;10.940;2023-11-21T20:20:28;10.10;99.90
2855;DHT22;1435;49.472;10.940;2023-11-21T20:25:30;9.90;99.90
2855;DHT22;1435;49.472;10.940;2023-11-21T20:30:34;9.90;99.90
2855;DHT22;1435;49.472;10.940;2023-11-21T20:35:37;9.80;99.90
2855;DHT22;1435;49.472;10.940;2023-11-21T20:40:40;9.70;99.90
2855;DHT22;1435;49.472;10.940;2023-11-21T20:45:42;9.70;99.90
2855;DHT22;1435;49.472;10.940;2023-11-21T20:50:45;9.70;99.90
2855;DHT22;1435;49.472;10.940;2023-11-21T20:55:47;9.70;99.90
2855;DHT22;1435;49.472;10.940;2023-11-21T21:00:50;9.60;99.90
2855;DHT22;1435;49.472;10.940;2023-11-21T21:05:53;9.60;99.90
2855;DHT22;1435;49.472;10.940;2023-11-21T21:10:55;9.50;99.90
2855;DHT22;1435;49.472;10.940;2023-11-21T21:15:59;9.50;99.90
2855;DHT22;1435;49.472;10.940;2023-11-21T21:21:02;9.40;99.90
2855;DHT22;1435;49.472;10.940;2023-11-21T21:26:03;9.30;99.90
2855;DHT22;1435;49.472;10.940;2023-11-21T21:31:08;9.40;99.90
2855;DHT22;1435;49.472;10.940;2023-11-21T21:36:12;9.30;99.90
2855;DHT22;1435;49.472;10.940;2023-11-21T21:41:16;9.20;99.90
2855;DHT22;1435;49.472;10.940;2023-11-21T21:46:18;9.10;99.90
2855;DHT22;1435;49.472;10.940;2023-11-21T21:51:22;9.10;99.90
2855;DHT22;1435;49.472;10.940;2023-11-21T21:56:25;9.00;99.90
2855;DHT22;1435;49.472;10.940;2023-11-21T22:01:27;9.00;99.90
2855;DHT22;1435;49.472;10.940;2023-11-21T22:06:32;8.90;99.90
2855;DHT22;1435;49.472;10.940;2023-11-21T22:11:34;8.90;99.90
2855;DHT22;1435;49.472;10.940;2023-11-21T22:16:36;8.80;99.90
2855;DHT22;1435;49.472;10.940;2023-11-21T22:21:39;8.90;99.90
2855;DHT22;1435;49.472;10.940;2023-11-21T22:26:41;8.90;99.90
2855;DHT22;1435;49.472;10.940;2023-11-21T22:31:42;8.80;99.90
2855;DHT22;1435;49.472;10.940;2023-11-21T22:36:45;8.70;99.90
2855;DHT22;1435;49.472;10.940;2023-11-21T22:41:47;8.70;99.90
2855;DHT22;1435;49.472;10.940;2023-11-21T22:46:51;8.60;99.90
2855;DHT22;1435;49.472;10.940;2023-11-21T22:51:55;8.60;99.90
2855;DHT22;1435;49.472;10.940;2023-11-21T22:56:57;8.60;99.90
2855;DHT22;1435;49.472;10.940;2023-11-21T23:01:58;8.50;99.90
2855;DHT22;1435;49.472;10.940;2023-11-21T23:07:01;8.50;99.90
2855;DHT22;1435;49.472;10.940;2023-11-21T23:12:05;8.50;99.90
2855;DHT22;1435;49.472;10.940;2023-11-21T23:17:07;8.40;99.90
2855;DHT22;1435;49.472;10.940;2023-11-21T23:22:10;8.30;99.90
2855;DHT22;1435;49.472;10.940;2023-11-21T23:27:12;8.30;99.90
2855;DHT22;1435;49.472;10.940;2023-11-21T23:32:13;8.30;99.90
2855;DHT22;1435;49.472;10.940;2023-11-21T23:37:17;8.20;99.90
2855;DHT22;1435;49.472;10.940;2023-11-21T23:42:18;8.20;99.90
2855;DHT22;1435;49.472;10.940;2023-11-21T23:47:20;8.20;99.90
2855;DHT22;1435;49.472;10.940;2023-11-21T23:52:23;8.10;99.90
2855;DHT22;1435;49.472;10.940;2023-11-21T23:57:25;8.10;99.90
